createdAt,value
2018-08-06T00:02:15.515Z,99.90
2018-08-06T00:06:23.946Z,99.90
2018-08-06T00:10:32.258Z,99.90
2018-08-06T00:14:40.585Z,99.90
2018-08-06T00:18:48.897Z,99.90
2018-08-06T00:22:57.185Z,99.90
2018-08-06T00:27:05.933Z,99.90
2018-08-06T00:31:14.281Z,99.90
2018-08-06T00:35:22.549Z,99.90
2018-08-06T00:39:30.872Z,99.90
2018-08-06T00:43:39.207Z,99.90
2018-08-06T00:47:48.071Z,99.90
2018-08-06T00:51:56.385Z,99.90
2018-08-06T00:56:04.940Z,99.90
2018-08-06T01:00:20.295Z,99.90
2018-08-06T01:04:28.609Z,99.90
2018-08-06T01:08:36.925Z,99.90
2018-08-06T01:12:45.290Z,99.90
2018-08-06T01:16:53.596Z,99.90
2018-08-06T01:21:02.047Z,99.90
2018-08-06T01:25:10.438Z,99.90
2018-08-06T01:33:26.771Z,99.90
2018-08-06T01:37:35.193Z,99.90
2018-08-06T01:41:43.556Z,99.90
2018-08-06T01:45:51.929Z,99.90
2018-08-06T01:50:00.328Z,99.90
2018-08-06T01:54:08.621Z,99.90
2018-08-06T01:58:16.941Z,99.90
2018-08-06T02:02:25.345Z,99.90
2018-08-06T02:06:33.659Z,99.90
2018-08-06T02:10:42.022Z,99.90
2018-08-06T02:14:50.516Z,99.90
2018-08-06T02:18:58.857Z,99.90
2018-08-06T02:23:07.242Z,99.90
2018-08-06T02:27:15.542Z,99.90
2018-08-06T02:31:23.946Z,99.90
2018-08-06T02:35:32.263Z,99.90
2018-08-06T02:39:40.584Z,99.90
2018-08-06T02:43:49.042Z,99.90
2018-08-06T02:47:58.950Z,99.90
2018-08-06T02:52:07.553Z,99.90
2018-08-06T02:56:15.902Z,99.90
2018-08-06T03:00:24.245Z,99.90
2018-08-06T03:04:32.602Z,99.90
2018-08-06T03:08:40.955Z,99.90
2018-08-06T03:12:49.290Z,99.90
2018-08-06T03:16:57.696Z,99.90
2018-08-06T03:21:06.008Z,99.90
2018-08-06T03:25:16.372Z,99.90
2018-08-06T03:29:24.745Z,99.90
2018-08-06T03:33:33.075Z,99.90
2018-08-06T03:37:41.608Z,99.90
2018-08-06T03:41:50.105Z,99.90
2018-08-06T03:45:58.438Z,99.90
2018-08-06T03:50:08.244Z,99.90
2018-08-06T03:54:16.554Z,99.90
2018-08-06T03:58:24.911Z,99.90
2018-08-06T04:02:33.285Z,99.90
2018-08-06T04:06:41.603Z,99.90
2018-08-06T04:10:50.992Z,99.90
2018-08-06T04:14:59.429Z,99.90
2018-08-06T04:19:08.218Z,99.90
2018-08-06T04:23:16.514Z,99.90
2018-08-06T04:27:24.844Z,99.90
2018-08-06T04:35:41.447Z,99.90
2018-08-06T04:39:49.912Z,99.90
2018-08-06T04:43:58.244Z,99.90
2018-08-06T04:48:06.604Z,99.90
2018-08-06T04:52:15.139Z,99.90
2018-08-06T04:56:23.475Z,99.90
2018-08-06T05:00:31.852Z,99.90
2018-08-06T05:08:48.305Z,99.90
2018-08-06T05:12:56.615Z,99.90
2018-08-06T05:17:05.432Z,99.90
2018-08-06T05:21:13.722Z,99.90
2018-08-06T05:25:23.018Z,99.90
2018-08-06T05:29:31.291Z,99.90
2018-08-06T05:33:39.666Z,99.90
2018-08-06T05:37:48.095Z,99.90
2018-08-06T05:41:56.552Z,99.90
2018-08-06T05:46:05.793Z,99.90
2018-08-06T05:50:14.444Z,99.90
2018-08-06T05:54:22.773Z,99.90
2018-08-06T05:58:31.173Z,99.90
2018-08-06T06:02:39.622Z,99.90
2018-08-06T06:06:47.900Z,99.90
2018-08-06T06:10:56.287Z,99.90
2018-08-06T06:15:10.327Z,99.90
2018-08-06T06:19:18.804Z,99.90
2018-08-06T06:23:27.142Z,99.90
2018-08-06T06:27:35.603Z,99.90
2018-08-06T06:31:44.000Z,99.90
2018-08-06T06:35:52.371Z,99.90
2018-08-06T06:40:00.710Z,99.90
2018-08-06T06:44:09.511Z,99.90
2018-08-06T06:48:17.898Z,99.90
2018-08-06T06:52:26.341Z,99.90
2018-08-06T06:56:34.708Z,99.90
2018-08-06T07:00:43.048Z,99.90
2018-08-06T07:04:51.868Z,99.90
2018-08-06T07:09:00.358Z,99.90
2018-08-06T07:13:08.719Z,99.90
2018-08-06T07:17:17.077Z,99.90
2018-08-06T07:21:25.485Z,99.90
2018-08-06T07:25:33.843Z,99.90
2018-08-06T07:29:42.430Z,99.90
2018-08-06T07:33:50.834Z,99.90
2018-08-06T07:37:59.342Z,99.90
2018-08-06T07:42:07.709Z,99.90
2018-08-06T07:46:16.285Z,99.90
2018-08-06T07:50:24.583Z,99.90
2018-08-06T07:54:32.937Z,99.90
2018-08-06T07:58:41.300Z,99.90
2018-08-06T08:02:49.685Z,99.90
2018-08-06T08:06:58.035Z,99.90
2018-08-06T08:11:06.498Z,99.90
2018-08-06T08:15:16.677Z,99.90
2018-08-06T08:19:25.052Z,99.90
2018-08-06T08:23:33.376Z,99.90
2018-08-06T08:27:41.741Z,99.90
2018-08-06T08:31:50.182Z,99.90
2018-08-06T08:35:58.535Z,99.90
2018-08-06T08:40:11.091Z,99.90
2018-08-06T08:44:19.504Z,99.90
2018-08-06T08:48:28.000Z,99.90
2018-08-06T08:52:36.328Z,99.90
2018-08-06T08:56:44.648Z,99.90
2018-08-06T09:00:53.018Z,99.90
2018-08-06T09:05:01.628Z,99.90
2018-08-06T09:09:12.000Z,99.90
2018-08-06T09:13:21.173Z,99.90
2018-08-06T09:17:29.465Z,99.90
2018-08-06T09:21:37.793Z,99.90
2018-08-06T09:25:46.136Z,99.90
2018-08-06T09:29:54.546Z,99.90
2018-08-06T09:34:02.962Z,99.90
2018-08-06T09:38:11.625Z,99.90
2018-08-06T09:42:20.277Z,99.90
2018-08-06T09:46:28.564Z,99.90
2018-08-06T09:50:36.908Z,99.80
2018-08-06T09:54:45.400Z,99.90
2018-08-06T09:58:53.734Z,99.60
2018-08-06T10:03:02.773Z,98.60
2018-08-06T10:07:11.172Z,97.10
2018-08-06T10:11:19.622Z,97.10
2018-08-06T10:15:28.309Z,96.20
2018-08-06T10:19:36.684Z,96.20
2018-08-06T10:23:45.034Z,95.90
2018-08-06T10:27:53.396Z,94.90
2018-08-06T10:32:01.821Z,93.40
2018-08-06T10:36:10.125Z,94.00
2018-08-06T10:40:20.086Z,94.70
2018-08-06T10:44:28.428Z,93.10
2018-08-06T10:48:36.970Z,93.70
2018-08-06T10:52:45.369Z,91.90
2018-08-06T10:56:53.733Z,91.80
2018-08-06T11:01:02.288Z,93.60
2018-08-06T11:05:11.866Z,90.60
2018-08-06T11:09:20.228Z,89.40
2018-08-06T11:13:28.551Z,87.20
2018-08-06T11:17:37.625Z,86.80
2018-08-06T11:21:46.036Z,86.00
2018-08-06T11:25:54.439Z,86.20
2018-08-06T11:30:02.963Z,89.50
2018-08-06T11:34:11.269Z,85.50
2018-08-06T11:38:20.116Z,86.40
2018-08-06T11:42:28.739Z,80.70
2018-08-06T11:46:37.338Z,76.50
2018-08-06T11:50:45.749Z,79.70
2018-08-06T11:54:54.074Z,72.80
2018-08-06T11:59:02.410Z,77.70
2018-08-06T12:03:11.055Z,75.80
2018-08-06T12:07:19.452Z,73.90
2018-08-06T12:11:28.080Z,72.70
2018-08-06T12:15:36.546Z,75.60
2018-08-06T12:19:44.921Z,76.50
2018-08-06T12:23:53.243Z,73.50
2018-08-06T12:28:01.603Z,75.10
2018-08-06T12:32:09.903Z,67.80
2018-08-06T12:36:18.543Z,63.50
2018-08-06T12:40:26.960Z,67.90
2018-08-06T12:44:35.510Z,66.00
2018-08-06T12:48:43.950Z,64.10
2018-08-06T12:52:52.413Z,66.20
2018-08-06T12:57:00.794Z,71.40
2018-08-06T13:01:09.088Z,60.80
2018-08-06T13:05:18.030Z,61.60
2018-08-06T13:09:26.905Z,65.80
2018-08-06T13:13:35.570Z,64.70
2018-08-06T13:17:43.958Z,59.10
2018-08-06T13:21:52.343Z,60.40
2018-08-06T13:26:01.025Z,59.90
2018-08-06T13:30:11.686Z,59.00
2018-08-06T13:38:28.585Z,57.50
2018-08-06T13:42:37.066Z,57.20
2018-08-06T13:46:45.502Z,57.00
2018-08-06T13:50:53.799Z,56.90
2018-08-06T13:55:02.236Z,57.40
2018-08-06T13:59:10.667Z,55.80
2018-08-06T14:11:35.134Z,56.60
2018-08-06T14:15:43.491Z,55.00
2018-08-06T14:19:51.844Z,54.40
2018-08-06T14:24:00.176Z,55.90
2018-08-06T14:28:08.519Z,53.40
2018-08-06T14:32:16.877Z,53.70
2018-08-06T14:36:25.230Z,51.40
2018-08-06T14:40:33.602Z,54.10
2018-08-06T14:44:41.970Z,55.60
2018-08-06T14:48:50.396Z,53.30
2018-08-06T14:52:58.710Z,52.90
2018-08-06T14:57:07.089Z,53.90
2018-08-06T15:01:15.399Z,52.90
2018-08-06T15:05:23.754Z,52.90
2018-08-06T15:09:32.066Z,52.10
2018-08-06T15:13:40.392Z,53.60
2018-08-06T15:17:48.742Z,52.70
2018-08-06T15:21:57.173Z,51.80
2018-08-06T15:26:05.705Z,52.90
2018-08-06T15:30:14.192Z,51.70
2018-08-06T15:34:22.546Z,52.40
2018-08-06T15:38:31.334Z,51.30
2018-08-06T15:42:39.915Z,54.10
2018-08-06T15:46:48.389Z,52.30
2018-08-06T15:50:56.739Z,53.30
2018-08-06T15:55:05.216Z,53.70
2018-08-06T15:59:13.654Z,54.10
2018-08-06T16:03:22.264Z,53.10
2018-08-06T16:07:31.403Z,52.30
2018-08-06T16:11:39.967Z,52.90
2018-08-06T16:15:48.293Z,55.10
2018-08-06T16:19:56.703Z,55.70
2018-08-06T16:24:05.077Z,55.50
2018-08-06T16:28:13.483Z,53.10
2018-08-06T16:36:30.026Z,52.30
2018-08-06T16:40:38.370Z,55.50
2018-08-06T16:44:46.736Z,55.40
2018-08-06T16:48:55.194Z,54.50
2018-08-06T16:53:03.578Z,56.60
2018-08-06T16:57:11.962Z,57.00
2018-08-06T17:01:20.266Z,55.20
2018-08-06T17:05:28.674Z,54.30
2018-08-06T17:09:36.963Z,53.30
2018-08-06T17:17:54.700Z,54.50
2018-08-06T17:22:03.110Z,55.30
2018-08-06T17:26:11.414Z,54.60
2018-08-06T17:34:27.847Z,55.90
2018-08-06T17:38:37.096Z,55.70
2018-08-06T17:42:45.476Z,55.00
2018-08-06T17:46:53.777Z,54.70
2018-08-06T17:51:02.150Z,56.10
2018-08-06T17:55:10.476Z,57.20
2018-08-06T17:59:18.790Z,57.20
2018-08-06T18:03:27.183Z,56.70
2018-08-06T18:07:35.546Z,57.20
2018-08-06T18:11:43.905Z,59.00
2018-08-06T18:15:52.336Z,59.60
2018-08-06T18:20:00.616Z,69.40
2018-08-06T18:24:08.924Z,64.10
2018-08-06T18:28:17.249Z,66.10
2018-08-06T18:32:25.617Z,70.30
2018-08-06T18:36:33.942Z,73.20
2018-08-06T18:40:42.340Z,72.20
2018-08-06T18:44:50.813Z,74.80
2018-08-06T18:48:59.335Z,76.50
2018-08-06T18:53:07.769Z,76.60
2018-08-06T18:57:16.131Z,76.10
2018-08-06T19:01:24.593Z,76.80
2018-08-06T19:05:32.936Z,76.30
2018-08-06T19:09:41.322Z,76.10
2018-08-06T19:13:55.065Z,76.80
2018-08-06T19:18:08.827Z,76.20
2018-08-06T19:22:17.179Z,76.80
2018-08-06T19:26:25.561Z,78.70
2018-08-06T19:30:39.204Z,80.20
2018-08-06T19:34:47.624Z,83.50
2018-08-06T19:38:55.992Z,83.60
2018-08-06T19:43:09.751Z,82.40
2018-08-06T19:47:18.152Z,83.10
2018-08-06T19:51:26.552Z,86.40
2018-08-06T19:55:40.310Z,87.90
2018-08-06T19:59:48.660Z,92.20
2018-08-06T20:03:57.042Z,97.80
2018-08-06T20:08:05.553Z,99.90
2018-08-06T20:12:13.894Z,99.90
2018-08-06T20:16:22.269Z,99.90
2018-08-06T20:20:30.656Z,99.90
2018-08-06T20:24:39.085Z,99.90
2018-08-06T20:32:55.514Z,99.90
2018-08-06T20:37:03.865Z,99.90
2018-08-06T20:41:12.164Z,99.90
2018-08-06T20:45:21.446Z,99.90
2018-08-06T20:49:29.837Z,99.90
2018-08-06T20:53:38.193Z,99.90
2018-08-06T20:57:46.998Z,99.90
2018-08-06T21:01:55.418Z,99.90
2018-08-06T21:06:03.859Z,99.90
2018-08-06T21:10:13.796Z,99.90
2018-08-06T21:14:22.084Z,99.90
2018-08-06T21:18:30.628Z,99.90
2018-08-06T21:22:39.123Z,99.90
2018-08-06T21:26:47.541Z,99.90
2018-08-06T21:30:55.859Z,99.90
2018-08-06T21:35:04.562Z,99.90
2018-08-06T21:39:12.898Z,99.90
2018-08-06T21:43:21.199Z,99.90
2018-08-06T21:47:29.530Z,99.90
2018-08-06T21:51:37.914Z,99.90
2018-08-06T21:55:46.226Z,99.90
2018-08-06T21:59:54.580Z,99.90
2018-08-06T22:04:02.958Z,99.90
2018-08-06T22:08:11.375Z,99.90
2018-08-06T22:12:19.735Z,99.90
2018-08-06T22:16:28.084Z,99.90
2018-08-06T22:20:36.426Z,99.90
2018-08-06T22:24:44.750Z,99.90
2018-08-06T22:28:53.005Z,99.90
2018-08-06T22:33:01.334Z,99.90
2018-08-06T22:37:09.716Z,99.90
2018-08-06T22:41:18.032Z,99.90
2018-08-06T22:45:26.372Z,99.90
2018-08-06T22:49:34.722Z,99.90
2018-08-06T22:53:43.092Z,99.90
2018-08-06T22:57:51.571Z,99.90
2018-08-06T23:01:59.892Z,99.90
2018-08-06T23:06:08.971Z,99.90
2018-08-06T23:10:18.141Z,99.90
2018-08-06T23:14:26.465Z,99.90
2018-08-06T23:18:34.870Z,99.90
2018-08-06T23:22:43.185Z,99.90
2018-08-06T23:26:51.514Z,99.90
2018-08-06T23:30:59.854Z,99.90
2018-08-06T23:35:09.949Z,99.90
2018-08-06T23:39:18.253Z,99.90
2018-08-06T23:43:26.530Z,99.90
2018-08-06T23:47:35.026Z,99.90
2018-08-06T23:51:43.313Z,99.90
2018-08-06T23:55:51.717Z,99.90
